createdAt,value
2022-12-08T00:02:49.845Z,100408.41
2022-12-08T00:06:11.099Z,100404.19
2022-12-08T00:09:39.653Z,100398.00
2022-12-08T00:12:42.163Z,100396.03
2022-12-08T00:15:44.464Z,100393.03
2022-12-08T00:18:46.828Z,100394.66
2022-12-08T00:21:49.321Z,100396.88
2022-12-08T00:24:51.559Z,100395.06
2022-12-08T00:27:53.779Z,100394.25
2022-12-08T00:30:55.997Z,100408.41
2022-12-08T00:33:59.138Z,100403.03
2022-12-08T00:37:01.474Z,100399.91
2022-12-08T00:40:04.502Z,100409.44
2022-12-08T00:43:06.822Z,100417.56
2022-12-08T00:46:09.876Z,100414.97
2022-12-08T00:49:12.707Z,100412.34
2022-12-08T00:52:15.050Z,100422.28
2022-12-08T00:55:17.400Z,100419.44
2022-12-08T00:58:19.641Z,100405.56
2022-12-08T01:01:22.036Z,100415.66
2022-12-08T01:04:24.721Z,100415.19
2022-12-08T01:07:28.112Z,100419.97
2022-12-08T01:10:32.798Z,100413.81
2022-12-08T01:13:38.596Z,100404.19
2022-12-08T01:16:41.892Z,100409.84
2022-12-08T01:19:45.122Z,100397.94
2022-12-08T01:22:47.464Z,100420.81
2022-12-08T01:25:49.774Z,100410.91
2022-12-08T01:28:52.493Z,100416.34
2022-12-08T01:31:54.720Z,100418.75
2022-12-08T01:34:56.971Z,100415.41
2022-12-08T01:37:59.205Z,100407.09
2022-12-08T01:41:01.553Z,100412.09
2022-12-08T01:44:23.781Z,100399.75
2022-12-08T01:47:33.476Z,100408.53
2022-12-08T01:50:36.260Z,100402.19
2022-12-08T01:53:39.225Z,100394.25
2022-12-08T01:56:55.428Z,100395.25
2022-12-08T02:00:11.563Z,100388.28
2022-12-08T02:03:19.727Z,100399.06
2022-12-08T02:06:22.135Z,100395.66
2022-12-08T02:09:24.626Z,100396.06
2022-12-08T02:12:26.912Z,100397.81
2022-12-08T02:15:56.572Z,100388.28
2022-12-08T02:19:29.887Z,100389.25
2022-12-08T02:22:37.231Z,100389.84
2022-12-08T02:25:42.245Z,100388.66
2022-12-08T02:29:16.172Z,100388.25
2022-12-08T02:32:43.230Z,100376.69
2022-12-08T02:35:45.537Z,100370.28
2022-12-08T02:38:56.975Z,100366.03
2022-12-08T02:42:08.126Z,100363.22
2022-12-08T02:45:31.849Z,100371.38
2022-12-08T02:48:34.579Z,100375.94
2022-12-08T02:51:36.853Z,100380.88
2022-12-08T02:54:46.600Z,100368.72
2022-12-08T02:58:09.843Z,100374.25
2022-12-08T03:01:18.983Z,100363.03
2022-12-08T03:04:36.436Z,100366.25
2022-12-08T03:07:53.728Z,100357.69
2022-12-08T03:11:10.553Z,100353.66
2022-12-08T03:14:16.878Z,100347.91
2022-12-08T03:17:22.231Z,100349.28
2022-12-08T03:20:27.845Z,100347.03
2022-12-08T03:23:30.777Z,100360.00
2022-12-08T03:26:46.950Z,100357.22
2022-12-08T03:29:52.029Z,100355.44
2022-12-08T03:33:33.213Z,100350.66
2022-12-08T03:36:35.483Z,100343.88
2022-12-08T03:39:37.727Z,100356.41
2022-12-08T03:42:39.985Z,100359.41
2022-12-08T03:45:42.217Z,100354.16
2022-12-08T03:48:44.784Z,100360.34
2022-12-08T03:51:47.565Z,100357.38
2022-12-08T03:54:49.899Z,100354.56
2022-12-08T03:57:52.172Z,100356.59
2022-12-08T04:00:54.408Z,100356.34
2022-12-08T04:03:56.666Z,100349.94
2022-12-08T04:06:59.035Z,100354.09
2022-12-08T04:10:01.716Z,100346.56
2022-12-08T04:13:04.287Z,100351.09
2022-12-08T04:16:08.062Z,100342.34
2022-12-08T04:19:10.371Z,100344.50
2022-12-08T04:22:12.771Z,100338.53
2022-12-08T04:25:15.149Z,100338.31
2022-12-08T04:28:17.668Z,100327.78
2022-12-08T04:31:19.909Z,100333.75
2022-12-08T04:34:22.342Z,100332.97
2022-12-08T04:37:24.582Z,100322.03
2022-12-08T04:40:26.850Z,100330.53
2022-12-08T04:43:29.438Z,100328.69
2022-12-08T04:46:31.829Z,100330.22
2022-12-08T04:49:34.165Z,100322.63
2022-12-08T04:52:37.097Z,100323.81
2022-12-08T04:55:44.228Z,100320.03
2022-12-08T04:58:46.734Z,100324.47
2022-12-08T05:01:49.123Z,100320.91
2022-12-08T05:04:51.527Z,100327.69
2022-12-08T05:07:53.837Z,100324.06
2022-12-08T05:11:07.081Z,100335.88
2022-12-08T05:14:11.640Z,100336.47
2022-12-08T05:17:15.678Z,100332.88
2022-12-08T05:20:18.148Z,100336.25
2022-12-08T05:23:20.482Z,100338.41
2022-12-08T05:26:22.884Z,100339.44
2022-12-08T05:29:25.275Z,100339.22
2022-12-08T05:32:27.578Z,100326.03
2022-12-08T05:35:29.868Z,100334.19
2022-12-08T05:38:32.265Z,100327.63
2022-12-08T05:41:35.065Z,100325.03
2022-12-08T05:44:37.316Z,100312.88
2022-12-08T05:47:39.590Z,100316.25
2022-12-08T05:50:49.987Z,100307.88
2022-12-08T05:54:02.668Z,100307.88
2022-12-08T05:57:05.473Z,100310.47
2022-12-08T06:00:19.013Z,100320.44
2022-12-08T06:03:22.361Z,100316.41
2022-12-08T06:06:25.166Z,100323.97
2022-12-08T06:09:27.532Z,100327.94
2022-12-08T06:12:29.990Z,100326.56
2022-12-08T06:15:34.794Z,100334.94
2022-12-08T06:18:37.097Z,100338.50
2022-12-08T06:21:42.439Z,100336.72
2022-12-08T06:24:44.801Z,100349.28
2022-12-08T06:27:47.034Z,100339.72
2022-12-08T06:30:49.313Z,100351.47
2022-12-08T06:33:58.753Z,100347.09
2022-12-08T06:37:01.461Z,100347.47
2022-12-08T06:40:04.304Z,100351.22
2022-12-08T06:43:06.884Z,100350.16
2022-12-08T06:46:12.677Z,100350.47
2022-12-08T06:49:15.181Z,100346.44
2022-12-08T06:52:17.396Z,100344.78
2022-12-08T06:55:42.428Z,100347.53
2022-12-08T06:58:46.115Z,100358.66
2022-12-08T07:01:52.858Z,100357.56
2022-12-08T07:04:55.248Z,100354.91
2022-12-08T07:07:57.593Z,100345.31
2022-12-08T07:10:59.910Z,100355.25
2022-12-08T07:14:02.917Z,100354.19
2022-12-08T07:17:05.304Z,100347.69
2022-12-08T07:20:08.192Z,100352.59
2022-12-08T07:23:10.626Z,100333.25
2022-12-08T07:26:13.641Z,100345.38
2022-12-08T07:29:15.866Z,100348.09
2022-12-08T07:32:18.286Z,100350.28
2022-12-08T07:35:20.689Z,100346.00
2022-12-08T07:38:23.650Z,100347.72
2022-12-08T07:41:26.843Z,100341.28
2022-12-08T07:44:29.233Z,100339.50
2022-12-08T07:47:31.662Z,100346.19
2022-12-08T07:50:34.336Z,100340.84
2022-12-08T07:53:36.574Z,100336.22
2022-12-08T07:56:39.126Z,100348.03
2022-12-08T07:59:41.475Z,100334.91
2022-12-08T08:02:43.931Z,100329.50
2022-12-08T08:05:48.285Z,100336.63
2022-12-08T08:08:53.229Z,100312.91
2022-12-08T08:12:22.312Z,100340.41
2022-12-08T08:15:19.324Z,100338.97
2022-12-08T08:18:21.701Z,100342.97
2022-12-08T08:24:46.230Z,100353.53
2022-12-08T08:27:48.962Z,100348.78
2022-12-08T08:30:51.538Z,100341.53
2022-12-08T08:33:55.055Z,100336.31
2022-12-08T08:36:57.451Z,100344.53
2022-12-08T08:39:59.887Z,100350.03
2022-12-08T08:43:03.943Z,100339.63
2022-12-08T08:46:07.032Z,100332.28
2022-12-08T08:49:09.391Z,100339.03
2022-12-08T08:52:11.714Z,100344.19
2022-12-08T08:55:14.079Z,100344.25
2022-12-08T08:58:17.135Z,100336.84
2022-12-08T09:01:21.963Z,100331.38
2022-12-08T09:04:25.698Z,100318.03
2022-12-08T09:07:28.134Z,100321.50
2022-12-08T09:10:30.455Z,100328.69
2022-12-08T09:13:32.728Z,100320.09
2022-12-08T09:16:40.440Z,100335.19
2022-12-08T09:19:44.610Z,100314.84
2022-12-08T09:22:47.041Z,100311.78
2022-12-08T09:25:49.467Z,100302.94
2022-12-08T09:28:55.076Z,100303.88
2022-12-08T09:31:57.481Z,100305.72
2022-12-08T09:34:59.830Z,100296.91
2022-12-08T09:41:14.283Z,100304.41
2022-12-08T09:44:22.266Z,100299.19
2022-12-08T09:47:35.476Z,100295.97
2022-12-08T09:50:45.474Z,100288.31
2022-12-08T09:54:00.189Z,100271.09
2022-12-08T09:57:11.200Z,100265.16
2022-12-08T10:00:14.492Z,100256.59
2022-12-08T10:03:17.222Z,100249.16
2022-12-08T10:06:28.265Z,100251.56
2022-12-08T10:09:53.186Z,100268.94
2022-12-08T10:13:25.504Z,100272.41
2022-12-08T10:16:44.482Z,100278.03
2022-12-08T10:19:48.310Z,100288.75
2022-12-08T10:23:13.820Z,100270.47
2022-12-08T10:26:19.257Z,100281.09
2022-12-08T10:29:21.571Z,100258.13
2022-12-08T10:32:24.784Z,100259.22
2022-12-08T10:35:47.065Z,100244.56
2022-12-08T10:38:49.348Z,100230.19
2022-12-08T10:41:51.790Z,100233.16
2022-12-08T10:45:09.237Z,100226.53
2022-12-08T10:48:22.441Z,100221.75
2022-12-08T10:51:50.788Z,100213.38
2022-12-08T10:54:54.300Z,100214.31
2022-12-08T10:57:56.609Z,100214.25
2022-12-08T11:01:03.173Z,100207.97
2022-12-08T11:04:11.879Z,100205.03
2022-12-08T11:07:22.777Z,100185.94
2022-12-08T11:10:42.495Z,100189.53
2022-12-08T11:13:45.006Z,100188.84
2022-12-08T11:16:47.838Z,100183.72
2022-12-08T11:20:09.494Z,100186.03
2022-12-08T11:23:26.333Z,100169.75
2022-12-08T11:26:33.732Z,100160.50
2022-12-08T11:29:36.376Z,100156.72
2022-12-08T11:32:42.780Z,100155.66
2022-12-08T11:35:50.074Z,100149.69
2022-12-08T11:38:57.220Z,100147.66
2022-12-08T11:42:02.620Z,100122.56
2022-12-08T11:45:13.848Z,100122.41
2022-12-08T11:48:24.025Z,100114.78
2022-12-08T11:51:40.895Z,100099.56
2022-12-08T11:54:50.690Z,100094.03
2022-12-08T11:57:57.304Z,100091.97
2022-12-08T12:00:59.817Z,100103.22
2022-12-08T12:04:40.029Z,100102.69
2022-12-08T12:07:51.003Z,100102.91
2022-12-08T12:11:02.171Z,100103.91
2022-12-08T12:14:42.935Z,100101.31
2022-12-08T12:18:03.625Z,100106.00
2022-12-08T12:21:19.624Z,100106.63
2022-12-08T12:24:36.135Z,100107.66
2022-12-08T12:27:40.575Z,100109.13
2022-12-08T12:31:13.679Z,100110.53
2022-12-08T12:34:39.298Z,100110.44
2022-12-08T12:37:43.259Z,100111.72
2022-12-08T12:40:45.942Z,100091.91
2022-12-08T12:44:12.839Z,100103.50
2022-12-08T12:47:54.084Z,100112.69
2022-12-08T12:50:58.260Z,100113.38
2022-12-08T12:54:21.879Z,100102.19
2022-12-08T12:57:35.363Z,100097.19
2022-12-08T13:00:37.582Z,100084.38
2022-12-08T13:03:48.594Z,100088.56
2022-12-08T13:06:51.483Z,100079.44
2022-12-08T13:10:10.906Z,100080.31
2022-12-08T13:13:15.001Z,100088.63
2022-12-08T13:16:23.624Z,100081.53
2022-12-08T13:19:26.813Z,100084.38
2022-12-08T13:22:54.152Z,100084.06
2022-12-08T13:26:08.946Z,100080.94
2022-12-08T13:29:17.544Z,100076.69
2022-12-08T13:33:17.376Z,100064.69
2022-12-08T13:36:28.784Z,100076.44
2022-12-08T13:39:37.160Z,100078.56
2022-12-08T13:42:44.556Z,100079.38
2022-12-08T13:46:52.570Z,100083.34
2022-12-08T13:51:23.722Z,100079.31
2022-12-08T13:57:01.281Z,100079.31
2022-12-08T13:59:44.692Z,100076.38
2022-12-08T14:02:49.513Z,100074.31
2022-12-08T14:09:18.883Z,100070.19
2022-12-08T14:12:27.824Z,100068.38
2022-12-08T14:15:37.800Z,100063.34
2022-12-08T14:18:40.872Z,100061.75
2022-12-08T14:21:47.964Z,100072.97
2022-12-08T14:24:53.850Z,100062.25
2022-12-08T14:28:01.287Z,100071.34
2022-12-08T14:31:04.362Z,100078.06
2022-12-08T14:34:06.649Z,100075.44
2022-12-08T14:37:12.894Z,100065.81
2022-12-08T14:40:36.342Z,100074.97
2022-12-08T14:43:41.135Z,100078.56
2022-12-08T14:47:05.701Z,100078.50
2022-12-08T14:50:37.565Z,100082.38
2022-12-08T14:53:43.631Z,100081.25
2022-12-08T14:56:52.272Z,100078.75
2022-12-08T14:59:54.608Z,100089.16
2022-12-08T15:02:57.611Z,100069.81
2022-12-08T15:06:05.182Z,100069.56
2022-12-08T15:09:29.293Z,100067.53
2022-12-08T15:12:33.447Z,100055.16
2022-12-08T15:15:49.821Z,100060.19
2022-12-08T15:19:18.717Z,100061.31
2022-12-08T15:22:23.009Z,100059.19
2022-12-08T15:25:25.839Z,100063.84
2022-12-08T15:28:30.324Z,100056.31
2022-12-08T15:31:32.966Z,100061.31
2022-12-08T15:34:37.178Z,100049.31
2022-12-08T15:37:39.686Z,100055.38
2022-12-08T15:40:41.949Z,100041.75
2022-12-08T15:43:44.228Z,100034.09
2022-12-08T15:46:46.585Z,100028.38
2022-12-08T15:49:50.513Z,100046.41
2022-12-08T15:52:52.866Z,100033.66
2022-12-08T15:56:26.313Z,100033.53
2022-12-08T15:59:19.883Z,100032.00
2022-12-08T16:02:23.078Z,100036.75
2022-12-08T16:06:09.919Z,100030.19
2022-12-08T16:09:06.054Z,100033.81
2022-12-08T16:13:47.970Z,100032.00
2022-12-08T16:16:07.575Z,100022.84
2022-12-08T16:19:14.652Z,100021.81
2022-12-08T16:26:16.209Z,100030.75
2022-12-08T16:29:05.609Z,100030.97
2022-12-08T16:32:07.947Z,100034.84
2022-12-08T16:35:14.501Z,100046.56
2022-12-08T16:38:17.631Z,100039.75
2022-12-08T16:41:38.099Z,100043.94
2022-12-08T16:44:42.142Z,100041.09
2022-12-08T16:47:50.092Z,100038.00
2022-12-08T16:50:53.969Z,100033.56
2022-12-08T16:53:59.724Z,100025.22
2022-12-08T16:57:01.916Z,100014.50
2022-12-08T17:00:07.141Z,100038.50
2022-12-08T17:03:14.019Z,100041.34
2022-12-08T17:06:18.542Z,100048.59
2022-12-08T17:09:20.935Z,100031.84
2022-12-08T17:12:23.377Z,100035.72
2022-12-08T17:15:26.286Z,100027.13
2022-12-08T17:18:28.770Z,100034.72
2022-12-08T17:21:31.005Z,100040.47
2022-12-08T17:24:33.330Z,100026.09
2022-12-08T17:27:36.449Z,100022.47
2022-12-08T17:30:38.965Z,100014.88
2022-12-08T17:33:41.781Z,100015.91
2022-12-08T17:36:44.116Z,100030.28
2022-12-08T17:39:46.494Z,100021.69
2022-12-08T17:42:48.757Z,100038.03
2022-12-08T17:45:51.154Z,100032.59
2022-12-08T17:48:53.660Z,100031.25
2022-12-08T17:52:00.567Z,100026.28
2022-12-08T17:55:03.242Z,100024.38
2022-12-08T17:58:06.101Z,100025.50
2022-12-08T18:01:09.955Z,100026.31
2022-12-08T18:04:12.978Z,100023.69
2022-12-08T18:07:15.193Z,100033.66
2022-12-08T18:10:18.517Z,100024.59
2022-12-08T18:13:20.774Z,100023.88
2022-12-08T18:16:25.894Z,100024.41
2022-12-08T18:19:28.229Z,100009.28
2022-12-08T18:22:30.535Z,100007.16
2022-12-08T18:25:32.859Z,100008.75
2022-12-08T18:28:36.331Z,100011.63
2022-12-08T18:31:39.173Z,99996.41
2022-12-08T18:34:42.696Z,100007.94
2022-12-08T18:37:45.684Z,100003.22
2022-12-08T18:40:48.059Z,100010.00
2022-12-08T18:43:50.689Z,100010.31
2022-12-08T18:46:53.000Z,100019.47
2022-12-08T18:49:55.291Z,100018.19
2022-12-08T18:52:57.802Z,100016.91
2022-12-08T18:56:00.085Z,100021.59
2022-12-08T18:59:08.793Z,100015.91
2022-12-08T19:02:14.817Z,100019.84
2022-12-08T19:05:17.255Z,100016.44
2022-12-08T19:08:20.811Z,100010.38
2022-12-08T19:11:26.440Z,100006.19
2022-12-08T19:14:30.439Z,100010.91
2022-12-08T19:17:33.089Z,100016.19
2022-12-08T19:20:35.368Z,100007.78
2022-12-08T19:23:38.079Z,100015.59
2022-12-08T19:26:40.524Z,100013.53
2022-12-08T19:29:42.798Z,100009.34
2022-12-08T19:32:45.367Z,100012.97
2022-12-08T19:35:52.776Z,100020.31
2022-12-08T19:39:15.209Z,100021.13
2022-12-08T19:42:39.454Z,100023.16
2022-12-08T19:45:41.835Z,100004.63
2022-12-08T19:48:44.309Z,100011.38
2022-12-08T19:51:46.575Z,100011.38
2022-12-08T19:54:48.815Z,100008.56
2022-12-08T19:57:52.189Z,100000.50
2022-12-08T20:00:54.915Z,99999.47
2022-12-08T20:03:57.149Z,99997.81
2022-12-08T20:06:59.512Z,99998.34
2022-12-08T20:10:05.184Z,100004.22
2022-12-08T20:13:27.447Z,100004.97
2022-12-08T20:16:29.955Z,99989.84
2022-12-08T20:19:32.408Z,99992.94
2022-12-08T20:22:34.988Z,99987.94
2022-12-08T20:25:42.808Z,99984.25
2022-12-08T20:28:45.585Z,99973.28
2022-12-08T20:31:48.031Z,99982.44
2022-12-08T20:34:50.412Z,99979.84
2022-12-08T20:37:52.666Z,99975.09
2022-12-08T20:40:55.442Z,99978.50
2022-12-08T20:43:57.816Z,99980.56
2022-12-08T20:47:00.210Z,99987.03
2022-12-08T20:50:04.855Z,99993.34
2022-12-08T20:53:07.646Z,99992.31
2022-12-08T20:56:17.971Z,99994.91
2022-12-08T20:59:20.533Z,100002.66
2022-12-08T21:02:23.011Z,100009.69
2022-12-08T21:05:25.718Z,100008.88
2022-12-08T21:08:28.673Z,100006.28
2022-12-08T21:11:31.233Z,100005.50
2022-12-08T21:14:34.014Z,100000.84
2022-12-08T21:17:36.375Z,100008.41
2022-12-08T21:20:38.845Z,100009.75
2022-12-08T21:23:42.820Z,100005.34
2022-12-08T21:26:45.297Z,99999.59
2022-12-08T21:29:47.733Z,100016.78
2022-12-08T21:32:50.150Z,100017.03
2022-12-08T21:36:02.189Z,100006.81
2022-12-08T21:39:11.218Z,99994.38
2022-12-08T21:42:34.237Z,99979.28
2022-12-08T21:45:37.129Z,99972.91
2022-12-08T21:48:39.668Z,99966.19
2022-12-08T21:51:42.380Z,99973.06
2022-12-08T21:54:44.916Z,99969.31
2022-12-08T21:57:47.617Z,99973.72
2022-12-08T22:00:50.278Z,99963.63
2022-12-08T22:03:52.809Z,99970.38
2022-12-08T22:06:55.425Z,99980.34
2022-12-08T22:09:57.845Z,99978.81
2022-12-08T22:13:00.214Z,99981.34
2022-12-08T22:16:06.157Z,99988.66
2022-12-08T22:19:08.761Z,99991.38
2022-12-08T22:22:11.003Z,99980.88
2022-12-08T22:25:13.327Z,99982.69
2022-12-08T22:28:16.306Z,99987.81
2022-12-08T22:31:23.436Z,99989.41
2022-12-08T22:34:25.696Z,99985.47
2022-12-08T22:37:28.515Z,99998.91
2022-12-08T22:40:30.676Z,99995.78
2022-12-08T22:43:34.020Z,99989.81
2022-12-08T22:46:37.621Z,99989.50
2022-12-08T22:49:39.934Z,99982.63
2022-12-08T22:52:42.228Z,99983.59
2022-12-08T22:55:45.140Z,99983.13
2022-12-08T22:58:47.782Z,99991.63
2022-12-08T23:01:50.415Z,99982.69
2022-12-08T23:04:57.278Z,99981.63
2022-12-08T23:07:59.919Z,99989.56
2022-12-08T23:11:02.261Z,99991.72
2022-12-08T23:14:04.815Z,99982.56
2022-12-08T23:17:07.269Z,99972.38
2022-12-08T23:20:10.800Z,99972.78
2022-12-08T23:23:13.570Z,99981.50
2022-12-08T23:26:26.707Z,99980.09
2022-12-08T23:29:29.282Z,99968.34
2022-12-08T23:32:31.780Z,99972.28
2022-12-08T23:35:34.115Z,99964.03
2022-12-08T23:38:37.366Z,99974.97
2022-12-08T23:41:39.690Z,99981.63
2022-12-08T23:44:42.026Z,99989.59
2022-12-08T23:47:44.630Z,99972.84
2022-12-08T23:50:47.098Z,99971.28
2022-12-08T23:53:49.414Z,99969.69
2022-12-08T23:56:51.772Z,99969.22
2022-12-08T23:59:54.060Z,99976.03
